createdAt,value
2023-03-06T00:02:19.091Z,63.465789870127225
2023-03-06T00:07:15.462Z,62.450973933716426
2023-03-06T00:12:11.583Z,61.94256131023643
2023-03-06T00:17:07.882Z,62.07526878499089
2023-03-06T00:22:04.105Z,61.74089799272579
2023-03-06T00:27:00.586Z,61.703751177804456
2023-03-06T00:31:56.662Z,61.571611011899684
2023-03-06T00:36:52.947Z,61.41171328054469
2023-03-06T00:41:49.176Z,60.86811722884249
2023-03-06T00:46:45.419Z,60.429818451983046
2023-03-06T00:51:41.698Z,61.90960728430313
2023-03-06T00:56:37.916Z,61.76717649295715
2023-03-06T01:06:38.458Z,61.863183247531005
2023-03-06T01:11:34.695Z,62.20119504615629
2023-03-06T01:16:36.027Z,62.415816145454606
2023-03-06T01:21:32.179Z,62.75925095170116
2023-03-06T01:26:27.461Z,62.78265915645544
2023-03-06T01:31:23.717Z,62.994402372206366
2023-03-06T01:36:19.962Z,62.58739356722164
2023-03-06T01:41:17.226Z,62.44253998052527
2023-03-06T01:46:25.509Z,62.385205821520216
2023-03-06T01:51:22.752Z,62.47482037730994
2023-03-06T01:56:19.037Z,62.669397819324175
2023-03-06T02:01:15.296Z,62.4825285518712
2023-03-06T02:06:12.599Z,63.07523038179513
2023-03-06T02:11:14.887Z,62.16148132436694
2023-03-06T02:16:11.986Z,61.93222858871554
2023-03-06T02:21:10.278Z,62.240996264567634
2023-03-06T02:26:09.529Z,62.14687061637144
2023-03-06T02:31:06.819Z,61.90583327913806
2023-03-06T02:36:05.043Z,60.6353230826128
2023-03-06T02:41:03.291Z,60.57372063194983
2023-03-06T02:46:03.655Z,60.965637441434744
2023-03-06T02:50:59.787Z,60.22403155860909
2023-03-06T02:55:56.241Z,60.9301654854642
2023-03-06T03:00:52.277Z,60.3435091456033
2023-03-06T03:05:48.563Z,60.10026434574812
2023-03-06T03:10:44.840Z,59.51152445939453
2023-03-06T03:15:41.218Z,58.61154577637198
2023-03-06T03:20:41.329Z,58.93285582538786
2023-03-06T03:25:38.604Z,58.428142486726934
2023-03-06T03:30:34.851Z,59.811992263754235
2023-03-06T03:35:31.222Z,60.381685973631875
2023-03-06T03:40:27.392Z,61.64069371370465
2023-03-06T03:45:23.599Z,61.7713567502706
2023-03-06T03:50:19.897Z,61.82851945309299
2023-03-06T03:55:16.133Z,61.91900769135951
2023-03-06T04:00:12.418Z,62.091480202559296
2023-03-06T04:05:09.726Z,62.51036640053657
2023-03-06T04:10:06.889Z,62.644507636179355
2023-03-06T04:15:04.198Z,62.82826141503956
2023-03-06T04:20:00.465Z,66.2710808694017
2023-03-06T04:24:56.708Z,67.42317490375615
2023-03-06T04:29:52.940Z,66.77916456162836
2023-03-06T04:34:49.265Z,67.67014461982173
2023-03-06T04:39:45.450Z,66.95092723172267
2023-03-06T04:44:41.779Z,67.11971812061854
2023-03-06T04:49:37.979Z,67.23384278734389
2023-03-06T04:54:34.291Z,68.02297602177934
2023-03-06T04:59:30.517Z,66.33154459314581
2023-03-06T05:04:26.809Z,66.97082887651676
2023-03-06T05:09:23.072Z,67.11478808817378
2023-03-06T05:14:19.333Z,66.64783152945307
2023-03-06T05:19:15.541Z,65.38982469131055
2023-03-06T05:24:11.781Z,65.48029002903773
2023-03-06T05:29:08.090Z,66.81736613100793
2023-03-06T05:34:04.345Z,66.18499902863327
2023-03-06T05:39:00.609Z,64.98075584866557
2023-03-06T05:43:56.854Z,65.63831578806104
2023-03-06T05:48:54.114Z,66.01634609951141
2023-03-06T05:53:50.567Z,63.62783366825748
2023-03-06T05:58:46.650Z,64.28578793973232
2023-03-06T06:03:42.930Z,65.03480902349095
2023-03-06T06:08:39.234Z,65.11896273515148
2023-03-06T06:13:35.374Z,65.22801532497479
2023-03-06T06:18:31.697Z,66.52632744707626
2023-03-06T06:23:28.008Z,66.63668140388913
2023-03-06T06:28:27.153Z,66.21082148298676
2023-03-06T06:33:23.408Z,66.17749867168801
2023-03-06T06:38:19.806Z,63.85284684660739
2023-03-06T06:43:15.962Z,65.04416241899615
2023-03-06T06:48:12.235Z,65.54978834993625
2023-03-06T06:53:08.452Z,66.92220347357319
2023-03-06T06:58:04.708Z,65.89272349429943
2023-03-06T07:03:00.952Z,64.91946320729144
2023-03-06T07:07:57.286Z,64.53241359479894
2023-03-06T07:12:53.535Z,65.00334283177985
2023-03-06T07:17:50.340Z,63.10025965297068
2023-03-06T07:22:51.432Z,60.74804340469552
2023-03-06T07:27:53.601Z,60.94153965013524
2023-03-06T07:32:52.532Z,60.129628050055025
2023-03-06T07:37:47.803Z,58.46918381800276
2023-03-06T07:42:44.219Z,58.223561897396515
2023-03-06T07:47:40.282Z,59.78516599724066
2023-03-06T07:52:35.581Z,55.937126067339065
2023-03-06T07:57:31.835Z,56.123129241624866
2023-03-06T08:02:28.070Z,57.1546822659772
2023-03-06T08:07:24.362Z,55.04640947568943
2023-03-06T08:12:20.588Z,54.6793404335118
2023-03-06T08:17:16.856Z,54.473066896766554
2023-03-06T08:22:13.134Z,53.87375040465873
2023-03-06T08:27:09.388Z,55.45967313379012
2023-03-06T08:32:10.884Z,54.770970936298454
2023-03-06T08:37:06.891Z,54.74347656328026
2023-03-06T08:42:03.135Z,52.69834782739714
2023-03-06T08:47:00.370Z,53.11712269771622
2023-03-06T08:51:56.668Z,51.59644832956349
2023-03-06T08:56:53.859Z,50.39272490962035
2023-03-06T09:01:52.188Z,49.65831514466121
2023-03-06T09:06:48.415Z,49.02662268719324
2023-03-06T09:11:46.692Z,46.682948716302896
2023-03-06T09:16:42.999Z,48.102230117104504
2023-03-06T09:21:40.477Z,46.86759400248038
2023-03-06T09:26:45.945Z,45.191320129063485
2023-03-06T09:31:41.949Z,43.59142685379779
2023-03-06T09:36:54.967Z,44.08708408375436
2023-03-06T09:41:46.171Z,43.17548378494193
2023-03-06T09:46:53.401Z,43.82445254706462
2023-03-06T09:51:57.617Z,43.35119688937092
2023-03-06T09:56:54.918Z,41.767922073601675
2023-03-06T10:01:58.160Z,37.59185053050266
2023-03-06T10:06:59.396Z,39.391580914200965
2023-03-06T10:12:00.665Z,39.120692037399124
2023-03-06T10:16:58.896Z,37.758032582023034
2023-03-06T10:22:02.167Z,37.46396990756116
2023-03-06T10:27:07.446Z,37.26971227525541
2023-03-06T10:32:10.745Z,37.1975846767277
2023-03-06T10:37:12.864Z,36.151811062419064
2023-03-06T10:42:09.108Z,36.99712573389264
2023-03-06T10:47:14.352Z,37.497071442454306
2023-03-06T10:52:15.627Z,37.59115107270024
2023-03-06T10:57:18.822Z,38.396581198412456
2023-03-06T11:02:24.069Z,38.7401014209952
2023-03-06T11:07:21.346Z,36.502809245427855
2023-03-06T11:12:20.645Z,36.84140462006408
2023-03-06T11:17:27.862Z,35.74368521268406
2023-03-06T11:22:32.105Z,35.80241044879153
2023-03-06T11:27:30.348Z,35.5775712893431
2023-03-06T11:32:30.691Z,34.88801467665918
2023-03-06T11:37:34.756Z,35.10463605574425
2023-03-06T11:42:38.045Z,33.19638461825991
2023-03-06T11:47:42.285Z,33.97949583231043
2023-03-06T11:52:46.570Z,34.010749409068225
2023-03-06T11:57:49.769Z,32.243396706915796
2023-03-06T12:08:06.237Z,33.21105611506319
2023-03-06T12:13:17.422Z,34.36355081998906
2023-03-06T12:18:29.629Z,33.862444432417256
2023-03-06T12:23:38.918Z,33.352618231927146
2023-03-06T12:28:51.171Z,33.65620184188293
2023-03-06T12:33:58.336Z,33.082730187693244
2023-03-06T12:39:07.591Z,33.00817242641225
2023-03-06T12:44:17.822Z,34.34440267902525
2023-03-06T12:49:31.083Z,35.82053737926172
2023-03-06T12:54:23.314Z,35.91781353515229
2023-03-06T12:59:30.564Z,35.85703795508214
2023-03-06T13:04:40.724Z,37.58552378311203
2023-03-06T13:09:48.955Z,38.43526909992859
2023-03-06T13:14:54.608Z,38.76261220758011
2023-03-06T13:19:57.476Z,40.58731748637737
2023-03-06T13:25:08.226Z,40.936770626904895
2023-03-06T13:30:54.164Z,41.56466352312604
2023-03-06T13:36:08.114Z,41.739735143145204
2023-03-06T13:41:15.237Z,41.032013070101705
2023-03-06T13:46:18.528Z,42.68397815650664
2023-03-06T13:51:19.743Z,43.18810529308238
2023-03-06T13:56:26.961Z,42.566550806632755
2023-03-06T14:01:39.252Z,42.96832968741022
2023-03-06T14:06:46.443Z,43.83532079780912
2023-03-06T14:11:50.712Z,45.602251381201214
2023-03-06T14:16:51.087Z,49.63210779433684
2023-03-06T14:26:57.439Z,49.92649875750986
2023-03-06T14:31:55.666Z,49.95350913195215
2023-03-06T14:36:53.923Z,49.804489459159974
2023-03-06T14:42:01.200Z,48.77392134495878
2023-03-06T14:47:02.430Z,48.1912991876387
2023-03-06T14:51:58.662Z,47.37028373846965
2023-03-06T14:56:59.925Z,46.639317045406095
2023-03-06T15:02:00.330Z,48.04582537430679
2023-03-06T15:06:58.489Z,48.21606791160348
2023-03-06T15:11:55.624Z,47.464578482228056
2023-03-06T15:17:02.946Z,47.05534842927949
2023-03-06T15:22:01.169Z,47.759731395077644
2023-03-06T15:27:00.383Z,46.7689180754018
2023-03-06T15:32:07.679Z,48.69284680549093
2023-03-06T15:42:16.155Z,50.032960178928825
2023-03-06T15:47:12.395Z,50.12441183780598
2023-03-06T15:52:08.610Z,49.78967338058569
2023-03-06T15:57:06.885Z,50.420569564464124
2023-03-06T16:00:27.942Z,50.346946571829214
2023-03-06T16:05:24.656Z,50.04056108252412
2023-03-06T16:10:22.901Z,51.45645401095643
2023-03-06T16:17:19.863Z,52.086800558539984
2023-03-06T16:23:27.937Z,51.98462098585946
2023-03-06T16:28:25.227Z,52.42926760789747
2023-03-06T16:33:20.455Z,54.01449696382274
2023-03-06T16:38:17.673Z,53.06366576422514
2023-03-06T16:43:13.954Z,52.90031716809953
2023-03-06T16:48:13.215Z,53.24206386801446
2023-03-06T16:53:09.481Z,54.68181042610069
2023-03-06T16:58:05.720Z,52.21622815985737
2023-03-06T17:03:02.078Z,53.77466397199967
2023-03-06T17:07:58.306Z,54.35961937351672
2023-03-06T17:12:55.693Z,56.97389551213797
2023-03-06T17:17:51.827Z,53.06811850106108
2023-03-06T17:22:48.013Z,52.84961155033313
2023-03-06T17:27:44.362Z,54.91561184961708
2023-03-06T17:32:40.631Z,55.19597406710893
2023-03-06T17:37:36.911Z,56.68947608248563
2023-03-06T17:42:34.065Z,58.345876444248034
2023-03-06T17:47:30.338Z,58.77999970603592
2023-03-06T17:52:27.584Z,57.82857061754817
2023-03-06T17:57:23.836Z,59.54329425769303
2023-03-06T18:02:20.118Z,59.38980681511824
2023-03-06T18:07:16.415Z,59.069178751268524
2023-03-06T18:12:12.661Z,58.708424993298316
2023-03-06T18:17:08.906Z,58.97636699469518
2023-03-06T18:22:05.151Z,58.521286108142945
2023-03-06T18:27:01.420Z,59.2738891499351
2023-03-06T18:31:58.749Z,57.29632585757208
2023-03-06T18:36:55.919Z,57.49299956989004
2023-03-06T18:41:52.197Z,57.10590496298412
2023-03-06T18:46:48.442Z,56.64268955483695
2023-03-06T18:51:49.711Z,58.88407368360201
2023-03-06T18:56:46.969Z,57.941065095187874
2023-03-06T19:01:43.169Z,56.43067675595442
2023-03-06T19:06:41.451Z,55.92456110859545
2023-03-06T19:11:38.704Z,56.28011743026216
2023-03-06T19:16:35.122Z,56.82923039869222
2023-03-06T19:26:41.477Z,57.25846780002205
2023-03-06T19:31:39.746Z,58.55986561091804
2023-03-06T19:36:35.012Z,62.74100158977018
2023-03-06T19:41:31.234Z,63.01509681648887
2023-03-06T19:46:27.532Z,62.33098598058919
2023-03-06T19:51:23.768Z,64.068871622675
2023-03-06T19:56:21.081Z,64.74004295150834
2023-03-06T20:01:18.319Z,64.31767638866532
2023-03-06T20:06:18.532Z,64.5900229119507
2023-03-06T20:11:15.795Z,67.4061156408305
2023-03-06T20:16:12.177Z,67.94062200505492
2023-03-06T20:21:08.341Z,68.42729029374155
2023-03-06T20:26:07.531Z,68.74503899152313
2023-03-06T20:30:38.120Z,68.2957661172684
2023-03-06T20:35:39.110Z,68.97510336896812
2023-03-06T20:44:39.800Z,68.23818260128715
2023-03-06T20:48:36.175Z,66.8854982396426
2023-03-06T20:53:34.431Z,67.58159575186211
2023-03-06T20:58:32.742Z,68.76272888052294
2023-03-06T21:03:29.964Z,65.94649606549036
2023-03-06T21:08:26.169Z,66.08752869100346
2023-03-06T21:13:22.479Z,69.6051775545367
2023-03-06T21:18:18.681Z,71.06333003796955
2023-03-06T21:23:14.990Z,72.28401188498239
2023-03-06T21:28:11.265Z,71.52662063513391
2023-03-06T21:33:10.534Z,72.79872495343432
2023-03-06T21:38:07.754Z,72.29831446417641
2023-03-06T21:43:05.982Z,72.280934349848
2023-03-06T21:48:03.257Z,73.31176957468776
2023-03-06T21:52:59.487Z,72.75419987889471
2023-03-06T21:57:55.806Z,73.04818011305305
2023-03-06T22:02:52.035Z,73.1139817814474
2023-03-06T22:07:48.354Z,72.96564356587281
2023-03-06T22:12:45.578Z,74.20508014920398
2023-03-06T22:17:34.856Z,72.52072667464299
2023-03-06T22:20:30.400Z,71.8619722786335
2023-03-06T22:23:26.950Z,72.56713885910216
2023-03-06T22:26:33.477Z,73.27687191371965
2023-03-06T22:27:42.311Z,73.20608268216684
2023-03-06T22:30:11.957Z,73.60367975482383
2023-03-06T22:33:07.481Z,73.34999618980765
2023-03-06T22:36:06.197Z,73.88638456754245
2023-03-06T22:39:02.602Z,73.73441684842801
2023-03-06T22:41:59.171Z,72.66053331246306
2023-03-06T22:44:55.038Z,72.12148280153974
2023-03-06T22:50:55.819Z,72.5785603712499
2023-03-06T22:53:51.373Z,72.71599263127891
2023-03-06T22:56:47.972Z,72.86343209860964
2023-03-06T22:59:43.499Z,72.7693808901413
2023-03-06T23:02:40.043Z,72.75027716345139
2023-03-06T23:05:39.606Z,72.52417673108185
2023-03-06T23:08:36.181Z,71.52579277372254
2023-03-06T23:11:32.752Z,70.46418374036553
2023-03-06T23:14:29.295Z,69.94421069853833
2023-03-06T23:17:24.839Z,71.2088255745649
2023-03-06T23:20:21.400Z,73.58514283521839
2023-03-06T23:23:16.990Z,76.11662729796492
2023-03-06T23:26:13.554Z,73.05192673431372
2023-03-06T23:29:09.073Z,75.84436815022853
2023-03-06T23:32:05.769Z,72.30695839035316
2023-03-06T23:35:01.260Z,71.91564777253954
2023-03-06T23:37:57.782Z,73.52326691446628
2023-03-06T23:40:53.325Z,72.94720900487387
2023-03-06T23:43:49.875Z,71.64462215876071
2023-03-06T23:46:46.427Z,69.17663362834602
2023-03-06T23:49:41.977Z,69.35525419885064
2023-03-06T23:55:44.130Z,70.3234609507302
2023-03-06T23:58:40.699Z,70.2889517660177
